sensor_id;sensor_type;location;lat;lon;timestamp;P1;durP1;ratioP1;P2;durP2;ratioP2
78783;SDS011;68127;51.050;14.084;2023-02-28T00:00:23;6.95;;;4.25;;
78783;SDS011;68127;51.050;14.084;2023-02-28T00:02:48;8.00;;;3.95;;
78783;SDS011;68127;51.050;14.084;2023-02-28T00:05:14;8.00;;;3.50;;
78783;SDS011;68127;51.050;14.084;2023-02-28T00:07:41;9.07;;;4.63;;
78783;SDS011;68127;51.050;14.084;2023-02-28T00:10:08;10.30;;;3.78;;
78783;SDS011;68127;51.050;14.084;2023-02-28T00:12:37;7.65;;;4.13;;
78783;SDS011;68127;51.050;14.084;2023-02-28T00:15:06;8.85;;;4.25;;
78783;SDS011;68127;51.050;14.084;2023-02-28T00:17:33;10.32;;;4.03;;
78783;SDS011;68127;51.050;14.084;2023-02-28T00:19:58;10.75;;;4.90;;
78783;SDS011;68127;51.050;14.084;2023-02-28T00:22:36;9.55;;;5.13;;
78783;SDS011;68127;51.050;14.084;2023-02-28T00:25:08;7.97;;;5.07;;
78783;SDS011;68127;51.050;14.084;2023-02-28T00:27:34;9.98;;;4.97;;
78783;SDS011;68127;51.050;14.084;2023-02-28T00:30:00;10.32;;;4.45;;
78783;SDS011;68127;51.050;14.084;2023-02-28T00:32:26;7.80;;;4.78;;
78783;SDS011;68127;51.050;14.084;2023-02-28T00:34:51;8.13;;;4.32;;
78783;SDS011;68127;51.050;14.084;2023-02-28T00:37:16;10.23;;;4.28;;
78783;SDS011;68127;51.050;14.084;2023-02-28T00:39:41;13.13;;;5.13;;
78783;SDS011;68127;51.050;14.084;2023-02-28T00:42:07;9.85;;;4.68;;
78783;SDS011;68127;51.050;14.084;2023-02-28T00:44:32;8.82;;;4.45;;
78783;SDS011;68127;51.050;14.084;2023-02-28T00:46:58;11.65;;;5.45;;
78783;SDS011;68127;51.050;14.084;2023-02-28T00:49:24;9.07;;;5.00;;
78783;SDS011;68127;51.050;14.084;2023-02-28T00:51:50;9.63;;;5.28;;
78783;SDS011;68127;51.050;14.084;2023-02-28T00:54:15;10.35;;;5.53;;
78783;SDS011;68127;51.050;14.084;2023-02-28T00:56:41;9.18;;;5.30;;
78783;SDS011;68127;51.050;14.084;2023-02-28T00:59:07;9.90;;;5.55;;
78783;SDS011;68127;51.050;14.084;2023-02-28T01:01:33;9.63;;;5.18;;
78783;SDS011;68127;51.050;14.084;2023-02-28T01:03:58;9.02;;;4.63;;
78783;SDS011;68127;51.050;14.084;2023-02-28T01:06:23;8.68;;;5.18;;
78783;SDS011;68127;51.050;14.084;2023-02-28T01:08:48;9.15;;;5.82;;
78783;SDS011;68127;51.050;14.084;2023-02-28T01:11:15;11.07;;;5.25;;
78783;SDS011;68127;51.050;14.084;2023-02-28T01:13:42;10.05;;;5.53;;
78783;SDS011;68127;51.050;14.084;2023-02-28T01:16:08;8.93;;;5.13;;
78783;SDS011;68127;51.050;14.084;2023-02-28T01:18:34;14.32;;;5.93;;
78783;SDS011;68127;51.050;14.084;2023-02-28T01:21:10;9.27;;;5.15;;
78783;SDS011;68127;51.050;14.084;2023-02-28T01:23:37;11.05;;;5.32;;
78783;SDS011;68127;51.050;14.084;2023-02-28T01:26:04;13.93;;;5.95;;
78783;SDS011;68127;51.050;14.084;2023-02-28T01:28:30;13.75;;;6.07;;
78783;SDS011;68127;51.050;14.084;2023-02-28T01:30:56;9.30;;;5.43;;
78783;SDS011;68127;51.050;14.084;2023-02-28T01:33:21;11.77;;;5.68;;
78783;SDS011;68127;51.050;14.084;2023-02-28T01:35:46;11.95;;;5.80;;
78783;SDS011;68127;51.050;14.084;2023-02-28T01:38:11;9.38;;;5.43;;
78783;SDS011;68127;51.050;14.084;2023-02-28T01:40:37;11.85;;;6.30;;
78783;SDS011;68127;51.050;14.084;2023-02-28T01:43:02;10.20;;;5.93;;
78783;SDS011;68127;51.050;14.084;2023-02-28T01:45:28;10.77;;;5.32;;
78783;SDS011;68127;51.050;14.084;2023-02-28T01:47:55;10.18;;;5.80;;
78783;SDS011;68127;51.050;14.084;2023-02-28T01:50:25;9.88;;;5.40;;
78783;SDS011;68127;51.050;14.084;2023-02-28T01:52:54;9.15;;;5.20;;
78783;SDS011;68127;51.050;14.084;2023-02-28T01:55:21;14.45;;;5.68;;
78783;SDS011;68127;51.050;14.084;2023-02-28T01:57:51;11.93;;;5.80;;
78783;SDS011;68127;51.050;14.084;2023-02-28T02:00:20;9.80;;;5.65;;
78783;SDS011;68127;51.050;14.084;2023-02-28T02:02:48;12.30;;;5.65;;
78783;SDS011;68127;51.050;14.084;2023-02-28T02:05:17;9.23;;;5.15;;
78783;SDS011;68127;51.050;14.084;2023-02-28T02:07:44;12.40;;;6.13;;
78783;SDS011;68127;51.050;14.084;2023-02-28T02:12:49;12.18;;;5.63;;
78783;SDS011;68127;51.050;14.084;2023-02-28T02:18:25;10.00;;;5.75;;
78783;SDS011;68127;51.050;14.084;2023-02-28T02:21:25;12.52;;;5.50;;
78783;SDS011;68127;51.050;14.084;2023-02-28T02:24:23;9.65;;;5.63;;
78783;SDS011;68127;51.050;14.084;2023-02-28T02:35:18;10.82;;;5.15;;
78783;SDS011;68127;51.050;14.084;2023-02-28T02:38:19;7.93;;;4.80;;
78783;SDS011;68127;51.050;14.084;2023-02-28T02:40:52;8.95;;;5.10;;
78783;SDS011;68127;51.050;14.084;2023-02-28T02:43:25;8.38;;;5.15;;
78783;SDS011;68127;51.050;14.084;2023-02-28T02:45:55;11.88;;;5.53;;
78783;SDS011;68127;51.050;14.084;2023-02-28T02:48:23;11.43;;;5.68;;
78783;SDS011;68127;51.050;14.084;2023-02-28T02:50:54;12.77;;;6.32;;
78783;SDS011;68127;51.050;14.084;2023-02-28T02:53:24;11.52;;;5.95;;
78783;SDS011;68127;51.050;14.084;2023-02-28T02:55:54;11.15;;;5.82;;
78783;SDS011;68127;51.050;14.084;2023-02-28T02:58:22;13.10;;;6.13;;
78783;SDS011;68127;51.050;14.084;2023-02-28T03:00:52;15.25;;;5.68;;
78783;SDS011;68127;51.050;14.084;2023-02-28T03:03:19;12.55;;;6.15;;
78783;SDS011;68127;51.050;14.084;2023-02-28T03:05:53;12.10;;;5.75;;
78783;SDS011;68127;51.050;14.084;2023-02-28T03:08:20;13.00;;;6.30;;
78783;SDS011;68127;51.050;14.084;2023-02-28T03:10:46;11.52;;;5.55;;
78783;SDS011;68127;51.050;14.084;2023-02-28T03:13:17;12.27;;;7.05;;
78783;SDS011;68127;51.050;14.084;2023-02-28T03:18:49;12.35;;;6.30;;
78783;SDS011;68127;51.050;14.084;2023-02-28T03:21:36;9.70;;;5.32;;
78783;SDS011;68127;51.050;14.084;2023-02-28T03:24:32;10.32;;;5.30;;
78783;SDS011;68127;51.050;14.084;2023-02-28T03:27:45;13.00;;;5.40;;
78783;SDS011;68127;51.050;14.084;2023-02-28T03:30:00;10.57;;;5.47;;
78783;SDS011;68127;51.050;14.084;2023-02-28T03:32:37;11.35;;;6.20;;
78783;SDS011;68127;51.050;14.084;2023-02-28T03:35:10;11.73;;;5.72;;
78783;SDS011;68127;51.050;14.084;2023-02-28T03:37:40;11.40;;;5.95;;
78783;SDS011;68127;51.050;14.084;2023-02-28T03:40:25;9.85;;;5.65;;
78783;SDS011;68127;51.050;14.084;2023-02-28T03:42:54;14.43;;;7.05;;
78783;SDS011;68127;51.050;14.084;2023-02-28T03:45:24;15.95;;;8.13;;
78783;SDS011;68127;51.050;14.084;2023-02-28T03:48:02;13.80;;;6.93;;
78783;SDS011;68127;51.050;14.084;2023-02-28T03:53:25;11.65;;;5.53;;
78783;SDS011;68127;51.050;14.084;2023-02-28T04:01:30;10.00;;;5.28;;
78783;SDS011;68127;51.050;14.084;2023-02-28T04:04:04;12.13;;;5.93;;
78783;SDS011;68127;51.050;14.084;2023-02-28T04:06:30;14.18;;;5.53;;
78783;SDS011;68127;51.050;14.084;2023-02-28T04:08:57;11.68;;;5.68;;
78783;SDS011;68127;51.050;14.084;2023-02-28T04:13:57;14.60;;;6.03;;
78783;SDS011;68127;51.050;14.084;2023-02-28T04:16:22;10.50;;;5.68;;
78783;SDS011;68127;51.050;14.084;2023-02-28T04:18:47;12.43;;;5.60;;
78783;SDS011;68127;51.050;14.084;2023-02-28T04:21:13;8.02;;;4.85;;
78783;SDS011;68127;51.050;14.084;2023-02-28T04:23:38;11.40;;;4.97;;
78783;SDS011;68127;51.050;14.084;2023-02-28T04:26:03;9.77;;;5.10;;
78783;SDS011;68127;51.050;14.084;2023-02-28T04:28:30;8.43;;;4.50;;
78783;SDS011;68127;51.050;14.084;2023-02-28T04:30:59;9.07;;;4.43;;
78783;SDS011;68127;51.050;14.084;2023-02-28T04:33:26;12.00;;;5.10;;
78783;SDS011;68127;51.050;14.084;2023-02-28T04:36:00;8.48;;;5.20;;
78783;SDS011;68127;51.050;14.084;2023-02-28T04:38:32;6.95;;;4.47;;
78783;SDS011;68127;51.050;14.084;2023-02-28T04:40:59;10.65;;;5.28;;
78783;SDS011;68127;51.050;14.084;2023-02-28T04:43:25;10.27;;;5.00;;
78783;SDS011;68127;51.050;14.084;2023-02-28T04:45:51;11.10;;;5.18;;
78783;SDS011;68127;51.050;14.084;2023-02-28T04:48:16;11.13;;;5.25;;
78783;SDS011;68127;51.050;14.084;2023-02-28T04:50:42;9.60;;;5.03;;
78783;SDS011;68127;51.050;14.084;2023-02-28T04:53:07;10.18;;;5.32;;
78783;SDS011;68127;51.050;14.084;2023-02-28T04:55:32;12.27;;;5.30;;
78783;SDS011;68127;51.050;14.084;2023-02-28T04:57:58;12.63;;;5.15;;
78783;SDS011;68127;51.050;14.084;2023-02-28T05:00:23;9.48;;;4.82;;
78783;SDS011;68127;51.050;14.084;2023-02-28T05:02:48;9.82;;;5.55;;
78783;SDS011;68127;51.050;14.084;2023-02-28T05:05:14;10.45;;;5.25;;
78783;SDS011;68127;51.050;14.084;2023-02-28T05:07:43;14.25;;;5.88;;
78783;SDS011;68127;51.050;14.084;2023-02-28T05:10:09;12.18;;;5.05;;
78783;SDS011;68127;51.050;14.084;2023-02-28T05:12:36;9.10;;;5.07;;
78783;SDS011;68127;51.050;14.084;2023-02-28T05:15:01;8.95;;;4.65;;
78783;SDS011;68127;51.050;14.084;2023-02-28T05:17:27;9.30;;;4.80;;
78783;SDS011;68127;51.050;14.084;2023-02-28T05:19:53;9.20;;;5.07;;
78783;SDS011;68127;51.050;14.084;2023-02-28T05:22:18;9.60;;;4.60;;
78783;SDS011;68127;51.050;14.084;2023-02-28T05:24:43;10.10;;;5.00;;
78783;SDS011;68127;51.050;14.084;2023-02-28T05:27:09;10.52;;;4.88;;
78783;SDS011;68127;51.050;14.084;2023-02-28T05:29:34;10.48;;;4.57;;
78783;SDS011;68127;51.050;14.084;2023-02-28T05:32:06;7.75;;;4.25;;
78783;SDS011;68127;51.050;14.084;2023-02-28T05:34:31;8.57;;;4.75;;
78783;SDS011;68127;51.050;14.084;2023-02-28T05:36:56;7.80;;;4.30;;
78783;SDS011;68127;51.050;14.084;2023-02-28T05:39:22;10.18;;;5.00;;
78783;SDS011;68127;51.050;14.084;2023-02-28T05:41:47;10.98;;;4.85;;
78783;SDS011;68127;51.050;14.084;2023-02-28T05:44:12;9.30;;;4.63;;
78783;SDS011;68127;51.050;14.084;2023-02-28T05:46:38;9.20;;;5.28;;
78783;SDS011;68127;51.050;14.084;2023-02-28T05:49:03;11.85;;;4.97;;
78783;SDS011;68127;51.050;14.084;2023-02-28T05:51:28;9.10;;;4.63;;
78783;SDS011;68127;51.050;14.084;2023-02-28T05:53:54;8.48;;;4.45;;
78783;SDS011;68127;51.050;14.084;2023-02-28T05:56:19;11.15;;;4.78;;
78783;SDS011;68127;51.050;14.084;2023-02-28T05:58:44;7.55;;;4.53;;
78783;SDS011;68127;51.050;14.084;2023-02-28T06:04:15;8.30;;;5.03;;
78783;SDS011;68127;51.050;14.084;2023-02-28T06:06:45;8.32;;;4.07;;
78783;SDS011;68127;51.050;14.084;2023-02-28T06:09:10;8.10;;;4.78;;
78783;SDS011;68127;51.050;14.084;2023-02-28T06:11:36;10.13;;;5.07;;
78783;SDS011;68127;51.050;14.084;2023-02-28T06:14:02;9.57;;;4.93;;
78783;SDS011;68127;51.050;14.084;2023-02-28T06:16:28;10.77;;;5.22;;
78783;SDS011;68127;51.050;14.084;2023-02-28T06:18:56;8.38;;;4.60;;
78783;SDS011;68127;51.050;14.084;2023-02-28T06:21:23;8.70;;;4.78;;
78783;SDS011;68127;51.050;14.084;2023-02-28T06:23:48;7.78;;;5.05;;
78783;SDS011;68127;51.050;14.084;2023-02-28T06:26:13;9.52;;;5.10;;
78783;SDS011;68127;51.050;14.084;2023-02-28T06:28:38;9.07;;;4.97;;
78783;SDS011;68127;51.050;14.084;2023-02-28T06:31:07;9.93;;;5.35;;
78783;SDS011;68127;51.050;14.084;2023-02-28T06:36:03;9.43;;;4.78;;
78783;SDS011;68127;51.050;14.084;2023-02-28T06:38:28;10.32;;;4.40;;
78783;SDS011;68127;51.050;14.084;2023-02-28T06:40:54;11.90;;;4.78;;
78783;SDS011;68127;51.050;14.084;2023-02-28T06:43:21;7.68;;;4.63;;
78783;SDS011;68127;51.050;14.084;2023-02-28T06:45:46;9.77;;;4.57;;
78783;SDS011;68127;51.050;14.084;2023-02-28T06:48:12;10.10;;;4.95;;
78783;SDS011;68127;51.050;14.084;2023-02-28T06:50:37;9.23;;;4.90;;
78783;SDS011;68127;51.050;14.084;2023-02-28T06:53:03;11.23;;;4.88;;
78783;SDS011;68127;51.050;14.084;2023-02-28T06:55:28;10.40;;;4.47;;
78783;SDS011;68127;51.050;14.084;2023-02-28T06:57:53;9.30;;;4.97;;
78783;SDS011;68127;51.050;14.084;2023-02-28T07:00:19;9.77;;;5.07;;
78783;SDS011;68127;51.050;14.084;2023-02-28T07:02:45;9.45;;;5.07;;
78783;SDS011;68127;51.050;14.084;2023-02-28T07:05:12;9.63;;;4.90;;
78783;SDS011;68127;51.050;14.084;2023-02-28T07:07:37;10.55;;;5.03;;
78783;SDS011;68127;51.050;14.084;2023-02-28T07:10:05;9.05;;;4.97;;
78783;SDS011;68127;51.050;14.084;2023-02-28T07:12:31;11.82;;;6.13;;
78783;SDS011;68127;51.050;14.084;2023-02-28T07:14:56;12.20;;;5.47;;
78783;SDS011;68127;51.050;14.084;2023-02-28T07:17:21;11.15;;;5.97;;
78783;SDS011;68127;51.050;14.084;2023-02-28T07:19:47;10.00;;;5.50;;
78783;SDS011;68127;51.050;14.084;2023-02-28T07:22:12;10.20;;;5.22;;
78783;SDS011;68127;51.050;14.084;2023-02-28T07:24:37;8.05;;;4.85;;
78783;SDS011;68127;51.050;14.084;2023-02-28T07:27:03;10.23;;;5.43;;
78783;SDS011;68127;51.050;14.084;2023-02-28T07:29:28;8.90;;;5.07;;
78783;SDS011;68127;51.050;14.084;2023-02-28T07:31:54;9.75;;;5.13;;
78783;SDS011;68127;51.050;14.084;2023-02-28T07:34:20;7.45;;;4.38;;
78783;SDS011;68127;51.050;14.084;2023-02-28T07:36:45;9.80;;;5.20;;
78783;SDS011;68127;51.050;14.084;2023-02-28T07:39:11;9.48;;;5.53;;
78783;SDS011;68127;51.050;14.084;2023-02-28T07:41:36;8.48;;;5.30;;
78783;SDS011;68127;51.050;14.084;2023-02-28T07:44:08;9.75;;;5.88;;
78783;SDS011;68127;51.050;14.084;2023-02-28T07:46:33;11.32;;;6.00;;
78783;SDS011;68127;51.050;14.084;2023-02-28T07:49:00;11.95;;;6.32;;
78783;SDS011;68127;51.050;14.084;2023-02-28T07:51:27;9.75;;;6.22;;
78783;SDS011;68127;51.050;14.084;2023-02-28T07:53:53;15.93;;;8.32;;
78783;SDS011;68127;51.050;14.084;2023-02-28T07:56:18;10.88;;;6.18;;
78783;SDS011;68127;51.050;14.084;2023-02-28T07:58:43;11.93;;;7.20;;
78783;SDS011;68127;51.050;14.084;2023-02-28T08:01:09;12.50;;;6.70;;
78783;SDS011;68127;51.050;14.084;2023-02-28T08:03:35;11.60;;;6.32;;
78783;SDS011;68127;51.050;14.084;2023-02-28T08:06:01;14.18;;;6.40;;
78783;SDS011;68127;51.050;14.084;2023-02-28T08:08:28;13.23;;;7.30;;
78783;SDS011;68127;51.050;14.084;2023-02-28T08:10:58;15.23;;;7.93;;
78783;SDS011;68127;51.050;14.084;2023-02-28T08:13:24;14.73;;;7.68;;
78783;SDS011;68127;51.050;14.084;2023-02-28T08:15:49;15.00;;;7.68;;
78783;SDS011;68127;51.050;14.084;2023-02-28T08:18:15;14.65;;;8.02;;
78783;SDS011;68127;51.050;14.084;2023-02-28T08:20:40;13.32;;;7.05;;
78783;SDS011;68127;51.050;14.084;2023-02-28T08:23:05;15.90;;;7.32;;
78783;SDS011;68127;51.050;14.084;2023-02-28T08:25:30;13.43;;;7.45;;
78783;SDS011;68127;51.050;14.084;2023-02-28T08:27:56;14.52;;;6.75;;
78783;SDS011;68127;51.050;14.084;2023-02-28T08:30:21;13.57;;;6.70;;
78783;SDS011;68127;51.050;14.084;2023-02-28T08:32:46;11.93;;;6.88;;
78783;SDS011;68127;51.050;14.084;2023-02-28T08:35:12;14.18;;;7.57;;
78783;SDS011;68127;51.050;14.084;2023-02-28T08:37:37;14.20;;;7.43;;
78783;SDS011;68127;51.050;14.084;2023-02-28T08:40:02;14.05;;;7.63;;
78783;SDS011;68127;51.050;14.084;2023-02-28T08:42:29;14.15;;;6.55;;
78783;SDS011;68127;51.050;14.084;2023-02-28T08:44:54;14.20;;;7.15;;
78783;SDS011;68127;51.050;14.084;2023-02-28T08:50:09;11.88;;;5.93;;
78783;SDS011;68127;51.050;14.084;2023-02-28T08:52:35;10.75;;;6.50;;
78783;SDS011;68127;51.050;14.084;2023-02-28T08:55:00;13.75;;;7.15;;
78783;SDS011;68127;51.050;14.084;2023-02-28T08:57:25;12.55;;;7.28;;
78783;SDS011;68127;51.050;14.084;2023-02-28T08:59:51;15.70;;;8.57;;
78783;SDS011;68127;51.050;14.084;2023-02-28T09:02:16;15.40;;;8.00;;
78783;SDS011;68127;51.050;14.084;2023-02-28T09:04:42;18.08;;;9.45;;
78783;SDS011;68127;51.050;14.084;2023-02-28T09:07:07;17.27;;;9.38;;
78783;SDS011;68127;51.050;14.084;2023-02-28T09:09:32;13.85;;;7.95;;
78783;SDS011;68127;51.050;14.084;2023-02-28T09:11:58;15.32;;;9.05;;
78783;SDS011;68127;51.050;14.084;2023-02-28T09:14:23;13.77;;;7.80;;
78783;SDS011;68127;51.050;14.084;2023-02-28T09:16:48;17.58;;;9.65;;
78783;SDS011;68127;51.050;14.084;2023-02-28T09:19:14;13.60;;;7.85;;
78783;SDS011;68127;51.050;14.084;2023-02-28T09:21:39;14.90;;;8.20;;
78783;SDS011;68127;51.050;14.084;2023-02-28T09:24:05;14.75;;;8.13;;
78783;SDS011;68127;51.050;14.084;2023-02-28T09:26:30;11.68;;;7.18;;
78783;SDS011;68127;51.050;14.084;2023-02-28T09:28:56;18.70;;;8.77;;
78783;SDS011;68127;51.050;14.084;2023-02-28T09:31:24;16.13;;;8.50;;
78783;SDS011;68127;51.050;14.084;2023-02-28T09:33:51;13.43;;;7.43;;
78783;SDS011;68127;51.050;14.084;2023-02-28T09:36:19;11.23;;;6.97;;
78783;SDS011;68127;51.050;14.084;2023-02-28T09:38:50;13.43;;;7.28;;
78783;SDS011;68127;51.050;14.084;2023-02-28T09:41:21;11.02;;;6.43;;
78783;SDS011;68127;51.050;14.084;2023-02-28T09:43:52;11.20;;;6.32;;
78783;SDS011;68127;51.050;14.084;2023-02-28T09:46:28;10.93;;;6.10;;
78783;SDS011;68127;51.050;14.084;2023-02-28T09:48:58;10.23;;;6.13;;
78783;SDS011;68127;51.050;14.084;2023-02-28T09:51:40;12.55;;;6.85;;
78783;SDS011;68127;51.050;14.084;2023-02-28T09:54:15;14.70;;;7.05;;
78783;SDS011;68127;51.050;14.084;2023-02-28T10:07:12;12.45;;;7.78;;
78783;SDS011;68127;51.050;14.084;2023-02-28T10:09:46;11.73;;;7.22;;
78783;SDS011;68127;51.050;14.084;2023-02-28T10:12:14;18.77;;;7.05;;
78783;SDS011;68127;51.050;14.084;2023-02-28T10:14:41;15.27;;;7.40;;
78783;SDS011;68127;51.050;14.084;2023-02-28T10:17:11;24.27;;;8.07;;
78783;SDS011;68127;51.050;14.084;2023-02-28T10:19:42;12.30;;;7.40;;
78783;SDS011;68127;51.050;14.084;2023-02-28T10:22:22;14.15;;;7.00;;
78783;SDS011;68127;51.050;14.084;2023-02-28T10:24:53;12.38;;;6.85;;
78783;SDS011;68127;51.050;14.084;2023-02-28T10:27:21;10.10;;;6.57;;
78783;SDS011;68127;51.050;14.084;2023-02-28T10:29:49;10.55;;;6.80;;
78783;SDS011;68127;51.050;14.084;2023-02-28T10:32:22;11.38;;;6.30;;
78783;SDS011;68127;51.050;14.084;2023-02-28T10:35:11;11.32;;;6.63;;
78783;SDS011;68127;51.050;14.084;2023-02-28T10:37:37;11.40;;;6.63;;
78783;SDS011;68127;51.050;14.084;2023-02-28T10:40:03;10.07;;;5.85;;
78783;SDS011;68127;51.050;14.084;2023-02-28T10:42:30;9.98;;;6.32;;
78783;SDS011;68127;51.050;14.084;2023-02-28T10:45:06;12.27;;;5.68;;
78783;SDS011;68127;51.050;14.084;2023-02-28T10:47:37;11.02;;;6.32;;
78783;SDS011;68127;51.050;14.084;2023-02-28T10:53:16;10.40;;;5.93;;
78783;SDS011;68127;51.050;14.084;2023-02-28T10:58:42;11.10;;;6.55;;
78783;SDS011;68127;51.050;14.084;2023-02-28T11:01:16;11.30;;;6.85;;
78783;SDS011;68127;51.050;14.084;2023-02-28T11:03:46;10.73;;;6.00;;
78783;SDS011;68127;51.050;14.084;2023-02-28T11:06:16;10.48;;;6.50;;
78783;SDS011;68127;51.050;14.084;2023-02-28T11:08:55;12.05;;;5.80;;
78783;SDS011;68127;51.050;14.084;2023-02-28T11:11:44;9.45;;;5.43;;
78783;SDS011;68127;51.050;14.084;2023-02-28T11:14:17;11.18;;;6.43;;
78783;SDS011;68127;51.050;14.084;2023-02-28T11:16:45;14.00;;;6.72;;
78783;SDS011;68127;51.050;14.084;2023-02-28T11:19:16;11.52;;;6.53;;
78783;SDS011;68127;51.050;14.084;2023-02-28T11:21:48;12.70;;;6.35;;
78783;SDS011;68127;51.050;14.084;2023-02-28T11:24:22;10.48;;;5.82;;
78783;SDS011;68127;51.050;14.084;2023-02-28T11:26:49;10.57;;;5.85;;
78783;SDS011;68127;51.050;14.084;2023-02-28T11:29:22;11.90;;;6.53;;
78783;SDS011;68127;51.050;14.084;2023-02-28T11:34:33;12.57;;;6.63;;
78783;SDS011;68127;51.050;14.084;2023-02-28T11:36:59;9.93;;;6.40;;
78783;SDS011;68127;51.050;14.084;2023-02-28T11:39:26;11.85;;;6.63;;
78783;SDS011;68127;51.050;14.084;2023-02-28T11:41:59;13.63;;;6.75;;
78783;SDS011;68127;51.050;14.084;2023-02-28T11:44:37;12.73;;;7.35;;
78783;SDS011;68127;51.050;14.084;2023-02-28T11:50:04;16.67;;;7.70;;
78783;SDS011;68127;51.050;14.084;2023-02-28T11:52:48;11.02;;;6.50;;
78783;SDS011;68127;51.050;14.084;2023-02-28T11:55:37;10.43;;;6.80;;
78783;SDS011;68127;51.050;14.084;2023-02-28T12:01:26;12.32;;;6.40;;
78783;SDS011;68127;51.050;14.084;2023-02-28T12:07:00;13.27;;;7.35;;
78783;SDS011;68127;51.050;14.084;2023-02-28T12:09:36;12.23;;;6.82;;
78783;SDS011;68127;51.050;14.084;2023-02-28T12:12:18;12.35;;;7.45;;
78783;SDS011;68127;51.050;14.084;2023-02-28T12:15:04;10.75;;;7.00;;
78783;SDS011;68127;51.050;14.084;2023-02-28T12:17:49;12.43;;;7.20;;
78783;SDS011;68127;51.050;14.084;2023-02-28T12:20:31;12.52;;;7.50;;
78783;SDS011;68127;51.050;14.084;2023-02-28T12:23:19;13.18;;;7.40;;
78783;SDS011;68127;51.050;14.084;2023-02-28T12:31:33;13.00;;;7.57;;
78783;SDS011;68127;51.050;14.084;2023-02-28T12:33:52;14.63;;;7.32;;
78783;SDS011;68127;51.050;14.084;2023-02-28T12:36:20;14.13;;;7.20;;
78783;SDS011;68127;51.050;14.084;2023-02-28T12:38:56;12.50;;;7.90;;
78783;SDS011;68127;51.050;14.084;2023-02-28T12:41:34;14.60;;;8.25;;
78783;SDS011;68127;51.050;14.084;2023-02-28T12:44:06;13.63;;;8.18;;
78783;SDS011;68127;51.050;14.084;2023-02-28T12:46:44;14.82;;;8.35;;
78783;SDS011;68127;51.050;14.084;2023-02-28T12:49:21;13.50;;;7.85;;
78783;SDS011;68127;51.050;14.084;2023-02-28T12:51:55;16.05;;;8.32;;
78783;SDS011;68127;51.050;14.084;2023-02-28T12:54:29;13.60;;;7.95;;
78783;SDS011;68127;51.050;14.084;2023-02-28T12:57:14;13.55;;;8.05;;
78783;SDS011;68127;51.050;14.084;2023-02-28T12:59:54;11.68;;;7.32;;
78783;SDS011;68127;51.050;14.084;2023-02-28T13:02:59;15.13;;;7.82;;
78783;SDS011;68127;51.050;14.084;2023-02-28T13:06:00;14.55;;;8.20;;
78783;SDS011;68127;51.050;14.084;2023-02-28T13:11:25;15.45;;;9.20;;
78783;SDS011;68127;51.050;14.084;2023-02-28T13:13:57;14.23;;;8.00;;
78783;SDS011;68127;51.050;14.084;2023-02-28T13:16:23;13.73;;;8.55;;
78783;SDS011;68127;51.050;14.084;2023-02-28T13:18:49;15.63;;;8.25;;
78783;SDS011;68127;51.050;14.084;2023-02-28T13:26:21;13.15;;;8.32;;
78783;SDS011;68127;51.050;14.084;2023-02-28T13:32:08;18.48;;;8.25;;
78783;SDS011;68127;51.050;14.084;2023-02-28T13:34:31;14.50;;;7.28;;
78783;SDS011;68127;51.050;14.084;2023-02-28T13:39:45;13.30;;;7.75;;
78783;SDS011;68127;51.050;14.084;2023-02-28T13:45:19;16.02;;;8.35;;
78783;SDS011;68127;51.050;14.084;2023-02-28T14:01:28;13.50;;;8.00;;
78783;SDS011;68127;51.050;14.084;2023-02-28T14:07:03;13.50;;;8.02;;
78783;SDS011;68127;51.050;14.084;2023-02-28T14:09:29;14.20;;;7.65;;
78783;SDS011;68127;51.050;14.084;2023-02-28T14:11:56;14.55;;;7.75;;
78783;SDS011;68127;51.050;14.084;2023-02-28T14:16:59;12.38;;;7.60;;
78783;SDS011;68127;51.050;14.084;2023-02-28T14:19:28;15.00;;;7.80;;
78783;SDS011;68127;51.050;14.084;2023-02-28T14:22:04;13.77;;;7.93;;
78783;SDS011;68127;51.050;14.084;2023-02-28T14:30:11;14.38;;;7.97;;
78783;SDS011;68127;51.050;14.084;2023-02-28T14:38:06;12.75;;;8.23;;
78783;SDS011;68127;51.050;14.084;2023-02-28T14:40:39;15.10;;;8.07;;
78783;SDS011;68127;51.050;14.084;2023-02-28T14:43:06;14.80;;;7.75;;
78783;SDS011;68127;51.050;14.084;2023-02-28T14:45:41;13.20;;;8.40;;
78783;SDS011;68127;51.050;14.084;2023-02-28T14:48:08;13.88;;;8.25;;
78783;SDS011;68127;51.050;14.084;2023-02-28T14:50:35;16.20;;;8.30;;
78783;SDS011;68127;51.050;14.084;2023-02-28T14:53:01;15.80;;;9.13;;
78783;SDS011;68127;51.050;14.084;2023-02-28T14:55:36;16.13;;;8.73;;
78783;SDS011;68127;51.050;14.084;2023-02-28T14:58:03;17.33;;;8.73;;
78783;SDS011;68127;51.050;14.084;2023-02-28T15:00:34;12.50;;;8.20;;
78783;SDS011;68127;51.050;14.084;2023-02-28T15:03:13;16.05;;;8.60;;
78783;SDS011;68127;51.050;14.084;2023-02-28T15:05:50;15.10;;;9.25;;
78783;SDS011;68127;51.050;14.084;2023-02-28T15:08:18;16.67;;;8.30;;
78783;SDS011;68127;51.050;14.084;2023-02-28T15:10:55;13.75;;;8.80;;
78783;SDS011;68127;51.050;14.084;2023-02-28T15:13:23;17.13;;;8.13;;
78783;SDS011;68127;51.050;14.084;2023-02-28T15:15:52;15.48;;;7.68;;
78783;SDS011;68127;51.050;14.084;2023-02-28T15:26:32;13.73;;;8.25;;
78783;SDS011;68127;51.050;14.084;2023-02-28T15:29:21;15.05;;;8.10;;
78783;SDS011;68127;51.050;14.084;2023-02-28T15:31:47;17.40;;;8.20;;
78783;SDS011;68127;51.050;14.084;2023-02-28T15:34:18;12.82;;;7.78;;
78783;SDS011;68127;51.050;14.084;2023-02-28T15:36:45;14.05;;;8.50;;
78783;SDS011;68127;51.050;14.084;2023-02-28T15:39:24;14.70;;;8.25;;
78783;SDS011;68127;51.050;14.084;2023-02-28T15:41:51;14.23;;;7.95;;
78783;SDS011;68127;51.050;14.084;2023-02-28T15:46:57;12.93;;;7.38;;
78783;SDS011;68127;51.050;14.084;2023-02-28T15:49:26;17.17;;;9.75;;
78783;SDS011;68127;51.050;14.084;2023-02-28T15:51:52;13.55;;;8.75;;
78783;SDS011;68127;51.050;14.084;2023-02-28T15:54:23;15.50;;;8.25;;
78783;SDS011;68127;51.050;14.084;2023-02-28T15:56:50;13.98;;;9.32;;
78783;SDS011;68127;51.050;14.084;2023-02-28T15:59:19;16.45;;;8.80;;
78783;SDS011;68127;51.050;14.084;2023-02-28T16:01:46;14.10;;;8.48;;
78783;SDS011;68127;51.050;14.084;2023-02-28T16:04:15;12.93;;;8.05;;
78783;SDS011;68127;51.050;14.084;2023-02-28T16:06:43;15.38;;;8.50;;
78783;SDS011;68127;51.050;14.084;2023-02-28T16:09:24;15.15;;;9.50;;
78783;SDS011;68127;51.050;14.084;2023-02-28T16:11:53;15.70;;;8.93;;
78783;SDS011;68127;51.050;14.084;2023-02-28T16:14:20;13.18;;;8.18;;
78783;SDS011;68127;51.050;14.084;2023-02-28T16:16:48;15.15;;;8.77;;
78783;SDS011;68127;51.050;14.084;2023-02-28T16:19:16;16.80;;;9.75;;
78783;SDS011;68127;51.050;14.084;2023-02-28T16:21:46;13.85;;;8.57;;
78783;SDS011;68127;51.050;14.084;2023-02-28T16:24:11;15.27;;;9.55;;
78783;SDS011;68127;51.050;14.084;2023-02-28T16:26:37;18.98;;;8.75;;
78783;SDS011;68127;51.050;14.084;2023-02-28T16:29:05;16.35;;;8.80;;
78783;SDS011;68127;51.050;14.084;2023-02-28T16:31:30;14.32;;;9.05;;
78783;SDS011;68127;51.050;14.084;2023-02-28T16:33:59;12.80;;;7.72;;
78783;SDS011;68127;51.050;14.084;2023-02-28T16:36:24;12.88;;;7.43;;
78783;SDS011;68127;51.050;14.084;2023-02-28T16:38:53;19.92;;;9.13;;
78783;SDS011;68127;51.050;14.084;2023-02-28T16:41:20;16.35;;;8.45;;
78783;SDS011;68127;51.050;14.084;2023-02-28T16:43:47;13.18;;;8.35;;
78783;SDS011;68127;51.050;14.084;2023-02-28T16:46:14;12.90;;;7.80;;